Time;durP1;ratioP1;P1;durP2;ratioP2;P2;SDS_P1;SDS_P2;PMS_P1;PMS_P2;Temp;Humidity;BMP_temperature;BMP_pressure;BME280_temperature;BME280_humidity;BME280_pressure;Samples;Min_cycle;Max_cycle;Signal;HPM_P1;HPM_P2
2022/09/28 00:01:12;;;;;;;0.98;0.98;;;8.80;99.90;;;;;;5012870;28;20657;-40
2022/09/28 00:03:38;;;;;;;0.90;0.90;;;8.80;99.90;;;;;;5012489;28;20056;-38
2022/09/28 00:06:06;;;;;;;2.92;0.88;;;8.80;99.90;;;;;;5012670;28;20396;-41
2022/09/28 00:08:32;;;;;;;;;;;8.80;99.90;;;;;;5014605;28;20128;-39
2022/09/28 00:10:58;;;;;;;1.38;0.90;;;8.80;99.90;;;;;;5011776;28;20131;-37
2022/09/28 00:13:23;;;;;;;0.93;0.93;;;8.80;99.90;;;;;;5012862;28;20433;-40
2022/09/28 00:16:08;;;;;;;1.73;1.00;;;8.80;99.90;;;;;;5009853;28;20057;-40
2022/09/28 00:18:34;;;;;;;1.20;1.10;;;8.80;99.90;;;;;;5013876;28;20037;-39
2022/09/28 00:21:01;;;;;;;0.93;0.80;;;8.90;99.90;;;;;;5016369;28;20076;-39
2022/09/28 00:23:27;;;;;;;1.85;0.90;;;8.80;99.90;;;;;;5013144;28;20029;-39
2022/09/28 00:25:52;;;;;;;0.80;0.80;;;8.80;99.90;;;;;;5011311;28;20160;-36
2022/09/28 00:28:18;;;;;;;1.20;1.10;;;8.70;99.90;;;;;;5010604;28;20038;-37
2022/09/28 00:30:43;;;;;;;1.45;0.88;;;8.80;99.90;;;;;;5017516;28;20038;-41
2022/09/28 00:33:09;;;;;;;1.00;0.93;;;8.80;99.90;;;;;;5012854;28;20036;-41
2022/09/28 00:35:35;;;;;;;1.50;0.80;;;8.80;99.90;;;;;;5011362;28;20065;-39
2022/09/28 00:38:02;;;;;;;1.85;0.80;;;8.80;99.90;;;;;;5010612;28;20041;-39
2022/09/28 00:40:28;;;;;;;2.13;0.90;;;8.80;99.90;;;;;;5012091;28;20055;-41
2022/09/28 00:42:53;;;;;;;0.70;0.70;;;8.90;99.90;;;;;;5014150;28;20147;-41
2022/09/28 00:45:21;;;;;;;0.70;0.70;;;8.90;99.90;;;;;;5012616;28;20048;-41
2022/09/28 00:47:51;;;;;;;0.80;0.80;;;8.90;99.90;;;;;;5018201;28;20092;-38
2022/09/28 00:50:19;;;;;;;0.50;0.50;;;8.90;99.90;;;;;;5015589;28;20127;-37
2022/09/28 00:53:07;;;;;;;0.68;0.68;;;8.90;99.90;;;;;;5014941;28;20037;-39
2022/09/28 00:55:48;;;;;;;0.88;0.68;;;8.90;99.90;;;;;;5014699;28;20065;-41
2022/09/28 00:58:19;;;;;;;1.95;0.80;;;8.90;99.90;;;;;;5022421;28;20059;-37
2022/09/28 01:00:45;;;;;;;0.65;0.65;;;8.90;99.90;;;;;;5024550;28;20092;-41
2022/09/28 01:03:13;;;;;;;0.80;0.80;;;8.90;99.90;;;;;;5024958;28;20033;-40
2022/09/28 01:05:39;;;;;;;1.08;1.00;;;9.00;99.90;;;;;;5018248;28;20766;-40
2022/09/28 01:08:06;;;;;;;8.30;1.20;;;9.00;99.90;;;;;;5016322;28;20037;-39
2022/09/28 01:10:32;;;;;;;1.48;0.63;;;9.00;99.90;;;;;;5014572;28;20436;-40
2022/09/28 01:12:58;;;;;;;1.75;0.88;;;9.00;99.90;;;;;;5016119;28;20049;-36
2022/09/28 01:15:27;;;;;;;2.70;0.95;;;9.00;99.90;;;;;;5015202;28;20148;-39
2022/09/28 01:18:17;;;;;;;0.85;0.85;;;9.00;99.90;;;;;;5014706;28;20564;-36
2022/09/28 01:21:18;;;;;;;1.83;1.27;;;9.00;99.90;;;;;;5014480;28;20049;-39
2022/09/28 01:24:02;;;;;;;1.27;0.90;;;9.00;99.90;;;;;;5014650;28;20096;-41
2022/09/28 01:26:47;;;;;;;0.82;0.82;;;9.00;99.90;;;;;;5015370;28;20159;-37
2022/09/28 01:29:41;;;;;;;1.08;1.00;;;9.00;99.90;;;;;;5013409;28;20021;-40
2022/09/28 01:32:26;;;;;;;4.28;0.82;;;9.00;99.90;;;;;;5014078;28;20491;-41
2022/09/28 01:35:04;;;;;;;1.25;0.77;;;9.00;99.90;;;;;;5015020;28;20038;-38
2022/09/28 01:37:55;;;;;;;0.70;0.67;;;9.00;99.90;;;;;;5014546;28;20104;-40
2022/09/28 01:40:23;;;;;;;0.85;0.85;;;9.00;99.90;;;;;;5013126;28;20272;-37
2022/09/28 01:42:56;;;;;;;2.83;1.00;;;9.00;99.90;;;;;;5017985;28;20033;-36
2022/09/28 01:45:50;;;;;;;2.67;1.23;;;9.00;99.90;;;;;;5014651;28;20045;-40
2022/09/28 01:48:27;;;;;;;1.88;0.70;;;9.00;99.90;;;;;;5006846;28;20056;-40
2022/09/28 01:50:58;;;;;;;3.13;1.00;;;9.00;99.90;;;;;;5013677;28;20033;-41
2022/09/28 01:53:39;;;;;;;3.00;0.90;;;9.00;99.90;;;;;;5016210;28;20026;-39
2022/09/28 01:56:16;;;;;;;0.75;0.75;;;9.00;99.90;;;;;;5014234;28;20040;-36
2022/09/28 01:58:48;;;;;;;1.42;1.02;;;9.00;99.90;;;;;;5015183;28;20502;-39
2022/09/28 02:01:39;;;;;;;2.75;0.88;;;9.00;99.90;;;;;;5014734;28;20381;-37
2022/09/28 02:04:04;;;;;;;0.98;0.90;;;9.00;99.90;;;;;;5003529;28;20522;-35
2022/09/28 02:06:37;;;;;;;0.77;0.68;;;8.90;99.90;;;;;;5010704;28;20025;-39
2022/09/28 02:09:09;;;;;;;2.60;1.15;;;8.80;99.90;;;;;;5014140;28;20380;-41
2022/09/28 02:11:37;;;;;;;0.93;0.73;;;8.90;99.90;;;;;;5014439;28;20037;-39
2022/09/28 02:14:03;;;;;;;0.85;0.82;;;8.90;99.90;;;;;;5014554;28;20177;-39
2022/09/28 02:16:43;;;;;;;1.00;0.90;;;8.80;99.90;;;;;;5012041;28;20130;-37
2022/09/28 02:19:13;;;;;;;1.08;0.80;;;8.80;99.90;;;;;;5012083;28;20025;-40
2022/09/28 02:22:04;;;;;;;0.80;0.73;;;8.80;99.90;;;;;;5014485;28;20049;-36
2022/09/28 02:24:49;;;;;;;2.58;0.90;;;8.80;99.90;;;;;;5012599;28;20505;-38
2022/09/28 02:27:38;;;;;;;1.35;1.20;;;8.80;99.90;;;;;;5012764;28;20037;-41
2022/09/28 02:30:05;;;;;;;0.88;0.85;;;8.80;99.90;;;;;;5015019;28;20045;-38
2022/09/28 02:32:34;;;;;;;2.13;0.88;;;8.80;99.90;;;;;;5015163;28;20450;-40
2022/09/28 02:35:00;;;;;;;1.35;0.90;;;8.70;99.90;;;;;;5012238;28;20029;-41
2022/09/28 02:37:26;;;;;;;0.73;0.73;;;8.80;99.90;;;;;;5014790;28;20079;-39
2022/09/28 02:39:52;;;;;;;1.00;1.00;;;8.70;99.90;;;;;;5012976;28;20021;-38
2022/09/28 02:42:41;;;;;;;0.57;0.57;;;8.80;99.90;;;;;;5013804;28;20033;-39
2022/09/28 02:45:34;;;;;;;1.73;0.90;;;8.80;99.90;;;;;;5011372;28;20033;-38
2022/09/28 02:48:34;;;;;;;1.55;0.80;;;8.80;99.90;;;;;;5015907;28;20026;-40
2022/09/28 02:51:05;;;;;;;0.60;0.60;;;8.70;99.90;;;;;;5002552;28;20041;-36
2022/09/28 02:53:48;;;;;;;4.43;1.00;;;8.80;99.90;;;;;;5014064;28;20037;-36
2022/09/28 02:56:31;;;;;;;1.20;1.00;;;8.80;99.90;;;;;;5010034;28;20083;-41
2022/09/28 02:59:10;;;;;;;1.38;1.00;;;8.80;99.90;;;;;;5015052;28;20110;-39
2022/09/28 03:01:57;;;;;;;2.40;0.90;;;8.80;99.90;;;;;;5013383;28;20041;-37
2022/09/28 03:04:36;;;;;;;1.25;1.13;;;8.90;99.90;;;;;;5012566;28;20041;-41
2022/09/28 03:07:21;;;;;;;2.67;1.00;;;8.90;99.90;;;;;;5012549;28;20041;-40
2022/09/28 03:09:57;;;;;;;1.17;1.08;;;8.90;99.90;;;;;;5010783;28;20037;-36
2022/09/28 03:12:24;;;;;;;0.85;0.80;;;9.00;99.90;;;;;;5013380;28;20033;-38
2022/09/28 03:15:22;;;;;;;1.95;0.90;;;9.00;99.90;;;;;;5013306;28;20512;-41
2022/09/28 03:17:47;;;;;;;1.57;0.80;;;9.00;99.90;;;;;;5013620;28;20033;-41
2022/09/28 03:20:13;;;;;;;0.77;0.77;;;9.10;99.90;;;;;;5012881;28;20049;-37
2022/09/28 03:22:39;;;;;;;0.80;0.80;;;9.10;99.90;;;;;;5014587;28;20304;-39
2022/09/28 03:25:06;;;;;;;0.82;0.80;;;9.20;99.90;;;;;;5012971;28;20033;-41
2022/09/28 03:27:32;;;;;;;1.00;0.90;;;9.20;99.90;;;;;;5013607;28;20037;-41
2022/09/28 03:29:57;;;;;;;0.70;0.70;;;9.20;99.90;;;;;;5014160;28;20033;-41
2022/09/28 03:32:23;;;;;;;3.65;0.90;;;9.20;99.90;;;;;;5013288;28;20133;-39
2022/09/28 03:34:49;;;;;;;1.23;0.98;;;9.20;99.90;;;;;;5011251;28;20039;-36
2022/09/28 03:37:14;;;;;;;2.13;0.85;;;9.20;99.90;;;;;;5012115;28;20029;-41
2022/09/28 03:39:40;;;;;;;1.15;0.85;;;9.20;99.90;;;;;;5013642;28;20025;-40
2022/09/28 03:42:05;;;;;;;3.33;0.85;;;9.20;99.90;;;;;;5013007;28;20087;-37
2022/09/28 03:44:31;;;;;;;1.45;0.82;;;9.20;99.90;;;;;;5014119;28;20040;-41
2022/09/28 03:46:57;;;;;;;2.90;1.20;;;9.20;99.90;;;;;;5012248;28;20037;-39
2022/09/28 03:49:22;;;;;;;0.80;0.68;;;9.20;99.90;;;;;;5012460;28;20022;-40
2022/09/28 03:51:48;;;;;;;1.65;1.00;;;9.20;99.90;;;;;;5013864;28;20053;-40
2022/09/28 03:54:13;;;;;;;0.80;0.80;;;9.30;99.90;;;;;;5013305;28;20041;-37
2022/09/28 03:56:40;;;;;;;1.33;0.90;;;9.20;99.90;;;;;;5013413;28;20533;-41
2022/09/28 03:59:05;;;;;;;0.65;0.60;;;9.20;99.90;;;;;;5011360;28;20083;-38
2022/09/28 04:01:31;;;;;;;1.20;1.10;;;9.20;99.90;;;;;;5012253;28;20487;-41
2022/09/28 04:03:57;;;;;;;0.68;0.68;;;9.20;99.90;;;;;;5012932;28;20447;-38
2022/09/28 04:06:26;;;;;;;0.70;0.70;;;9.20;99.90;;;;;;5010270;28;20021;-40
2022/09/28 04:08:51;;;;;;;0.70;0.70;;;9.20;99.90;;;;;;5013733;28;20072;-40
2022/09/28 04:11:17;;;;;;;3.63;1.08;;;9.30;99.90;;;;;;5012316;28;20542;-37
2022/09/28 04:13:46;;;;;;;1.23;0.60;;;9.30;99.90;;;;;;5010477;28;20017;-39
2022/09/28 04:16:11;;;;;;;0.80;0.80;;;9.20;99.90;;;;;;5013368;28;20041;-41
2022/09/28 04:18:38;;;;;;;0.60;0.60;;;9.20;99.90;;;;;;5013941;28;20030;-37
2022/09/28 04:21:06;;;;;;;3.75;0.95;;;9.20;99.90;;;;;;5014516;28;20053;-39
2022/09/28 04:23:34;;;;;;;0.77;0.77;;;9.20;99.90;;;;;;5017817;28;20049;-41
2022/09/28 04:25:59;;;;;;;2.80;0.85;;;9.20;99.90;;;;;;5017313;28;20040;-39
2022/09/28 04:31:12;;;;;;;1.98;0.77;;;9.20;99.90;;;;;;5015294;28;20044;-41
2022/09/28 04:33:37;;;;;;;1.13;0.77;;;9.20;99.90;;;;;;5016639;28;20047;-41
2022/09/28 04:36:03;;;;;;;0.52;0.52;;;9.20;99.90;;;;;;5019232;28;21598;-36
2022/09/28 04:38:29;;;;;;;0.80;0.80;;;9.20;99.90;;;;;;5014652;28;20029;-39
2022/09/28 04:40:54;;;;;;;0.70;0.70;;;9.10;99.90;;;;;;5014991;28;20034;-38
2022/09/28 04:43:20;;;;;;;0.73;0.73;;;9.10;99.90;;;;;;5018382;28;20021;-39
2022/09/28 04:45:45;;;;;;;0.90;0.90;;;9.10;99.90;;;;;;5015099;28;20455;-40
2022/09/28 04:48:11;;;;;;;2.03;1.00;;;9.10;99.90;;;;;;5015045;28;20395;-41
2022/09/28 04:50:36;;;;;;;1.25;1.15;;;9.10;99.90;;;;;;5014728;28;20056;-41
2022/09/28 04:53:03;;;;;;;1.30;1.00;;;9.10;99.90;;;;;;5018517;28;20528;-40
2022/09/28 04:55:31;;;;;;;1.77;1.00;;;9.10;99.90;;;;;;5017142;28;20029;-37
2022/09/28 04:58:01;;;;;;;1.20;1.10;;;9.10;99.90;;;;;;5014765;28;20467;-35
2022/09/28 05:00:28;;;;;;;0.90;0.90;;;9.10;99.90;;;;;;5013483;28;20463;-38
2022/09/28 05:02:53;;;;;;;0.80;0.80;;;9.20;99.90;;;;;;5016518;28;20494;-38
2022/09/28 05:05:19;;;;;;;2.40;1.08;;;9.10;99.90;;;;;;5013228;28;20037;-38
2022/09/28 05:07:45;;;;;;;2.97;1.10;;;9.10;99.90;;;;;;5015066;28;20030;-40
2022/09/28 05:10:11;;;;;;;1.15;0.90;;;9.20;99.90;;;;;;5014207;28;21254;-36
2022/09/28 05:12:37;;;;;;;0.65;0.63;;;9.20;99.90;;;;;;5016776;28;20403;-42
2022/09/28 05:15:03;;;;;;;1.40;1.30;;;9.10;99.90;;;;;;5012841;28;20368;-41
2022/09/28 05:17:28;;;;;;;0.90;0.90;;;9.10;99.90;;;;;;5013439;28;20028;-35
2022/09/28 05:19:54;;;;;;;1.23;0.77;;;9.10;99.90;;;;;;5016920;28;20037;-40
2022/09/28 05:22:20;;;;;;;1.77;0.80;;;9.20;99.90;;;;;;5017348;28;20483;-37
2022/09/28 05:24:46;;;;;;;1.50;0.90;;;9.10;99.90;;;;;;5011226;28;20092;-37
2022/09/28 05:27:11;;;;;;;0.82;0.82;;;9.20;99.90;;;;;;5015704;28;20708;-41
2022/09/28 05:29:37;;;;;;;0.80;0.80;;;9.20;99.90;;;;;;5015715;28;20360;-41
2022/09/28 05:32:02;;;;;;;1.40;0.85;;;9.20;99.90;;;;;;5014297;28;20041;-39
2022/09/28 05:34:28;;;;;;;1.02;0.75;;;9.20;99.90;;;;;;5017273;28;20065;-41
2022/09/28 05:36:54;;;;;;;1.30;0.90;;;9.20;99.90;;;;;;5017100;28;20022;-40
2022/09/28 05:39:19;;;;;;;0.70;0.70;;;9.20;99.90;;;;;;5012032;28;20038;-39
2022/09/28 05:41:45;;;;;;;1.60;0.90;;;9.20;99.90;;;;;;5014884;28;20475;-39
2022/09/28 05:44:11;;;;;;;1.67;1.00;;;9.10;99.90;;;;;;5015364;28;20467;-40
2022/09/28 05:46:36;;;;;;;1.88;0.80;;;9.20;99.90;;;;;;5013957;28;20034;-38
2022/09/28 05:49:02;;;;;;;0.80;0.80;;;9.20;99.90;;;;;;5015448;28;20442;-41
2022/09/28 05:51:28;;;;;;;0.80;0.80;;;9.20;99.90;;;;;;5013395;28;20065;-41
2022/09/28 05:53:54;;;;;;;1.17;1.00;;;9.20;99.90;;;;;;5015342;28;20550;-38
2022/09/28 05:56:20;;;;;;;0.85;0.85;;;9.30;99.90;;;;;;5014478;28;20029;-37
2022/09/28 05:58:45;;;;;;;0.90;0.90;;;9.20;99.90;;;;;;5015475;28;20036;-36
2022/09/28 06:01:11;;;;;;;1.10;1.10;;;9.30;99.90;;;;;;5017855;28;20030;-41
2022/09/28 06:03:37;;;;;;;0.73;0.73;;;9.20;99.90;;;;;;5019219;28;20087;-38
2022/09/28 06:06:02;;;;;;;0.80;0.80;;;9.30;99.90;;;;;;5020213;28;20031;-36
2022/09/28 06:08:31;;;;;;;0.90;0.77;;;9.30;99.90;;;;;;5013512;28;20483;-39
2022/09/28 06:11:00;;;;;;;0.80;0.80;;;9.30;99.90;;;;;;5019740;28;20044;-39
2022/09/28 06:13:27;;;;;;;0.47;0.47;;;9.30;99.90;;;;;;5018228;28;20083;-41
2022/09/28 06:15:53;;;;;;;0.73;0.73;;;9.30;99.90;;;;;;5014912;28;20113;-37
2022/09/28 06:18:19;;;;;;;0.70;0.70;;;9.40;99.90;;;;;;5014942;28;20052;-38
2022/09/28 06:20:44;;;;;;;2.25;0.98;;;9.40;99.90;;;;;;5019541;28;20792;-40
2022/09/28 06:23:11;;;;;;;0.90;0.90;;;9.40;99.90;;;;;;5014426;28;20025;-37
2022/09/28 06:25:38;;;;;;;2.08;0.80;;;9.40;99.90;;;;;;5011198;28;20542;-41
2022/09/28 06:28:14;;;;;;;2.63;0.93;;;9.50;99.90;;;;;;5014125;28;20541;-37
2022/09/28 06:30:40;;;;;;;0.80;0.80;;;9.50;99.90;;;;;;5012754;28;20041;-40
2022/09/28 06:33:09;;;;;;;0.55;0.50;;;9.50;99.90;;;;;;5015962;28;20052;-37
2022/09/28 06:35:35;;;;;;;0.90;0.90;;;9.50;99.90;;;;;;5014635;28;20091;-41
2022/09/28 06:38:00;;;;;;;0.70;0.70;;;9.50;99.90;;;;;;5014779;28;20112;-37
2022/09/28 06:40:27;;;;;;;0.90;0.90;;;9.50;99.90;;;;;;5015406;28;20037;-41
2022/09/28 06:43:14;;;;;;;0.60;0.60;;;9.50;99.90;;;;;;5012390;28;20048;-39
2022/09/28 06:45:41;;;;;;;0.70;0.70;;;9.50;99.90;;;;;;5014209;28;20041;-41
2022/09/28 06:48:08;;;;;;;0.73;0.73;;;9.50;99.90;;;;;;5016227;28;20158;-41
2022/09/28 06:50:36;;;;;;;0.70;0.70;;;9.60;99.90;;;;;;5015741;28;20359;-41
2022/09/28 06:53:05;;;;;;;1.27;0.70;;;9.60;99.90;;;;;;5014327;28;20419;-40
2022/09/28 06:55:31;;;;;;;1.45;0.60;;;9.60;99.90;;;;;;5012719;28;20391;-37
2022/09/28 06:58:05;;;;;;;0.80;0.80;;;9.60;99.90;;;;;;5018659;28;20376;-37
2022/09/28 07:00:34;;;;;;;0.98;0.82;;;9.60;99.90;;;;;;5012129;28;20026;-38
2022/09/28 07:03:04;;;;;;;0.80;0.80;;;9.60;99.90;;;;;;5014204;28;20021;-38
2022/09/28 07:05:33;;;;;;;0.70;0.70;;;9.60;99.90;;;;;;5014151;28;20037;-39
2022/09/28 07:08:00;;;;;;;0.50;0.50;;;9.60;99.90;;;;;;5013707;28;20219;-39
2022/09/28 07:10:29;;;;;;;0.60;0.60;;;9.60;99.90;;;;;;5015996;28;20405;-38
2022/09/28 07:12:56;;;;;;;0.98;0.70;;;9.60;99.90;;;;;;5013095;28;20044;-37
2022/09/28 07:15:22;;;;;;;0.90;0.68;;;9.70;99.90;;;;;;5012853;28;20759;-40
2022/09/28 07:17:48;;;;;;;0.60;0.60;;;9.60;99.90;;;;;;5016841;28;20383;-38
2022/09/28 07:20:14;;;;;;;0.95;0.70;;;9.60;99.90;;;;;;5015549;28;20045;-39
2022/09/28 07:22:39;;;;;;;0.52;0.52;;;9.60;99.90;;;;;;5015063;28;20122;-41
2022/09/28 07:25:06;;;;;;;1.35;0.82;;;9.60;99.90;;;;;;5015654;28;20037;-38
2022/09/28 07:27:33;;;;;;;0.70;0.70;;;9.60;99.90;;;;;;5014946;28;20084;-41
2022/09/28 07:29:59;;;;;;;0.70;0.70;;;9.60;99.90;;;;;;5015314;28;20033;-36
2022/09/28 07:32:26;;;;;;;1.30;0.90;;;9.60;99.90;;;;;;5013497;28;20041;-40
2022/09/28 07:34:52;;;;;;;1.58;0.80;;;9.60;99.90;;;;;;5015415;28;20360;-40
2022/09/28 07:37:19;;;;;;;0.85;0.70;;;9.60;99.90;;;;;;5016116;28;20033;-37
2022/09/28 07:42:29;;;;;;;0.30;0.30;;;9.30;99.90;;;;;;5013548;28;20048;-41
2022/09/28 07:44:57;;;;;;;0.50;0.50;;;9.20;99.90;;;;;;5013557;28;20048;-38
2022/09/28 07:47:25;;;;;;;0.32;0.32;;;9.10;99.90;;;;;;5017064;28;20037;-41
2022/09/28 07:49:54;;;;;;;0.50;0.50;;;9.10;99.90;;;;;;5013407;28;20038;-37
2022/09/28 07:52:23;;;;;;;1.30;0.70;;;9.00;99.90;;;;;;5014345;28;20160;-38
2022/09/28 07:54:51;;;;;;;0.73;0.60;;;9.00;99.90;;;;;;5013798;28;20447;-38
2022/09/28 07:57:17;;;;;;;0.47;0.47;;;9.00;99.90;;;;;;5014912;28;20072;-41
2022/09/28 07:59:43;;;;;;;0.45;0.45;;;9.10;99.90;;;;;;5012810;28;20025;-38
2022/09/28 08:02:10;;;;;;;0.50;0.50;;;9.00;99.90;;;;;;5011369;28;20533;-35
2022/09/28 08:04:36;;;;;;;0.40;0.40;;;9.00;99.90;;;;;;5013615;28;20033;-41
2022/09/28 08:07:01;;;;;;;1.58;0.50;;;8.90;99.90;;;;;;5012357;28;20040;-38
2022/09/28 08:09:28;;;;;;;0.40;0.40;;;8.90;99.90;;;;;;5012759;28;20045;-37
2022/09/28 08:11:54;;;;;;;0.50;0.50;;;8.90;99.90;;;;;;5011996;28;20132;-35
2022/09/28 08:14:20;;;;;;;1.23;0.60;;;8.90;99.90;;;;;;5012509;28;20371;-37
2022/09/28 08:16:45;;;;;;;0.40;0.40;;;8.90;99.90;;;;;;5016831;28;20528;-40
2022/09/28 08:19:11;;;;;;;1.00;0.60;;;8.80;99.90;;;;;;5014189;28;20030;-38
2022/09/28 08:21:45;;;;;;;0.65;0.65;;;8.90;99.90;;;;;;5012061;28;20099;-38
2022/09/28 08:24:15;;;;;;;0.68;0.57;;;8.90;99.90;;;;;;5013911;28;20026;-41
2022/09/28 08:26:44;;;;;;;1.23;0.60;;;8.90;99.90;;;;;;5013894;28;20037;-39
2022/09/28 08:29:10;;;;;;;2.25;0.90;;;9.00;99.90;;;;;;5012795;28;20033;-40
2022/09/28 08:31:35;;;;;;;0.70;0.70;;;9.00;99.90;;;;;;5013965;28;20041;-37
2022/09/28 08:34:01;;;;;;;0.80;0.80;;;9.00;99.90;;;;;;5013962;28;20459;-40
2022/09/28 08:36:27;;;;;;;0.85;0.85;;;9.00;99.90;;;;;;5012086;28;20033;-36
2022/09/28 08:38:53;;;;;;;0.85;0.85;;;9.00;99.90;;;;;;5015267;28;20014;-41
2022/09/28 08:41:28;;;;;;;0.90;0.77;;;9.10;99.90;;;;;;5015310;28;20052;-41
2022/09/28 08:44:14;;;;;;;0.75;0.75;;;9.00;99.90;;;;;;5012012;28;20054;-38
2022/09/28 08:46:49;;;;;;;0.60;0.60;;;9.10;99.90;;;;;;5012826;28;20119;-41
2022/09/28 08:49:24;;;;;;;0.73;0.70;;;9.20;99.90;;;;;;5019726;28;20030;-40
2022/09/28 08:52:04;;;;;;;1.00;1.00;;;9.20;99.90;;;;;;5022036;28;20033;-41
2022/09/28 08:54:40;;;;;;;0.50;0.50;;;9.20;99.90;;;;;;5014710;28;20386;-41
2022/09/28 08:57:13;;;;;;;0.60;0.60;;;9.30;99.90;;;;;;5014786;28;20760;-41
2022/09/28 08:59:48;;;;;;;0.45;0.45;;;9.30;99.90;;;;;;5013882;28;20461;-36
2022/09/28 09:02:33;;;;;;;0.45;0.45;;;9.30;99.90;;;;;;5014542;28;20026;-37
2022/09/28 09:05:01;;;;;;;0.60;0.60;;;9.30;99.90;;;;;;5012563;28;20374;-38
2022/09/28 09:07:48;;;;;;;0.90;0.70;;;9.30;99.90;;;;;;5017612;28;20495;-40
2022/09/28 09:10:42;;;;;;;1.52;0.90;;;9.30;99.90;;;;;;5015978;28;20033;-36
2022/09/28 09:13:30;;;;;;;0.80;0.80;;;9.40;99.90;;;;;;5016629;28;20033;-40
2022/09/28 09:16:15;;;;;;;0.80;0.80;;;9.60;99.90;;;;;;5017155;28;20124;-38
2022/09/28 09:19:05;;;;;;;1.60;0.65;;;9.60;99.90;;;;;;5016340;28;20029;-41
2022/09/28 09:21:49;;;;;;;0.45;0.43;;;9.60;99.90;;;;;;5015486;28;20073;-36
2022/09/28 09:24:49;;;;;;;0.60;0.60;;;9.60;99.90;;;;;;5017129;28;20064;-37
2022/09/28 09:27:29;;;;;;;1.02;0.65;;;9.70;99.90;;;;;;5004810;28;20452;-38
2022/09/28 09:30:10;;;;;;;0.50;0.50;;;9.70;99.90;;;;;;5015768;28;20025;-38
2022/09/28 09:32:52;;;;;;;0.40;0.40;;;9.70;99.90;;;;;;5016694;28;20034;-41
2022/09/28 09:35:45;;;;;;;0.95;0.95;;;9.70;99.90;;;;;;5016822;28;20033;-37
2022/09/28 09:38:51;;;;;;;0.45;0.45;;;9.80;99.90;;;;;;5018184;28;20046;-41
2022/09/28 09:41:32;;;;;;;0.80;0.80;;;9.90;99.90;;;;;;4952409;28;20045;-36
2022/09/28 09:44:32;;;;;;;0.73;0.57;;;9.80;99.90;;;;;;5016264;28;20021;-38
2022/09/28 09:47:18;;;;;;;0.90;0.70;;;9.70;99.90;;;;;;4982399;28;20091;-40
2022/09/28 09:50:10;;;;;;;0.93;0.80;;;9.80;99.90;;;;;;5015359;28;20560;-39
2022/09/28 09:52:53;;;;;;;1.17;1.08;;;9.90;99.90;;;;;;5017823;28;20091;-41
2022/09/28 09:55:28;;;;;;;1.15;0.80;;;9.90;99.90;;;;;;5014732;28;20068;-39
2022/09/28 09:58:14;;;;;;;0.68;0.65;;;10.10;99.90;;;;;;5022856;28;20103;-41
2022/09/28 10:00:48;;;;;;;0.80;0.80;;;10.10;99.90;;;;;;5023012;28;20040;-41
2022/09/28 10:03:29;;;;;;;0.60;0.60;;;10.20;99.90;;;;;;5015887;28;20029;-37
2022/09/28 10:06:27;;;;;;;1.75;0.90;;;10.00;99.90;;;;;;5015585;28;20041;-40
2022/09/28 10:09:29;;;;;;;2.65;1.10;;;10.20;99.90;;;;;;5014241;28;20069;-36
2022/09/28 10:11:54;;;;;;;2.40;1.08;;;10.30;99.90;;;;;;5017344;28;20069;-36
2022/09/28 10:14:22;;;;;;;1.58;0.90;;;10.40;99.90;;;;;;5017126;28;20546;-37
2022/09/28 10:16:50;;;;;;;1.20;1.10;;;10.50;99.90;;;;;;5014785;28;20378;-36
2022/09/28 10:19:19;;;;;;;1.67;0.75;;;10.50;99.90;;;;;;5017596;28;20284;-39
2022/09/28 10:21:49;;;;;;;1.65;0.90;;;10.30;99.90;;;;;;5014594;28;20457;-37
2022/09/28 10:24:45;;;;;;;1.05;0.80;;;10.30;99.90;;;;;;5014893;28;20033;-37
2022/09/28 10:27:15;;;;;;;2.72;1.40;;;10.40;99.90;;;;;;5012756;28;20092;-40
2022/09/28 10:30:03;;;;;;;0.90;0.90;;;10.40;99.90;;;;;;5015593;28;20092;-39
2022/09/28 10:32:46;;;;;;;1.10;1.00;;;10.30;99.90;;;;;;5013636;28;21730;-39
2022/09/28 10:35:22;;;;;;;0.85;0.85;;;10.40;99.90;;;;;;5014983;28;20033;-38
2022/09/28 10:38:03;;;;;;;2.03;1.08;;;10.50;99.90;;;;;;5015195;28;20029;-38
2022/09/28 10:40:43;;;;;;;1.20;1.10;;;10.50;99.90;;;;;;5016160;28;20033;-38
2022/09/28 10:43:35;;;;;;;1.02;1.02;;;10.50;99.90;;;;;;5015683;28;20030;-40
2022/09/28 10:46:11;;;;;;;0.80;0.80;;;10.50;99.90;;;;;;5015665;28;20128;-38
2022/09/28 10:49:10;;;;;;;0.90;0.90;;;10.40;99.90;;;;;;5016207;28;20056;-42
2022/09/28 10:51:45;;;;;;;1.02;0.90;;;10.40;99.90;;;;;;5016237;28;20286;-39
2022/09/28 10:54:32;;;;;;;1.08;1.08;;;10.50;99.90;;;;;;5013459;28;20068;-36
2022/09/28 10:56:59;;;;;;;1.20;1.10;;;10.60;99.90;;;;;;5013516;28;20044;-37
2022/09/28 10:59:27;;;;;;;2.42;1.20;;;10.60;99.90;;;;;;5014386;28;20509;-41
2022/09/28 11:01:54;;;;;;;;;;;10.60;99.90;;;;;;5015658;28;20042;-39
2022/09/28 11:04:25;;;;;;;2.13;1.20;;;10.50;99.90;;;;;;5013918;28;20322;-40
2022/09/28 11:06:51;;;;;;;0.88;0.88;;;10.40;99.90;;;;;;5018300;28;20168;-41
2022/09/28 11:09:32;;;;;;;1.50;1.40;;;10.40;99.90;;;;;;5015336;28;20442;-40
2022/09/28 11:12:00;;;;;;;0.98;0.98;;;10.50;99.90;;;;;;5016938;28;20029;-41
2022/09/28 11:14:40;;;;;;;1.33;1.15;;;10.50;99.90;;;;;;5016737;28;20026;-37
2022/09/28 11:17:24;;;;;;;0.93;0.90;;;10.50;99.90;;;;;;5016805;28;20029;-40
2022/09/28 11:19:51;;;;;;;1.23;1.13;;;10.50;99.90;;;;;;5012484;28;20125;-37
2022/09/28 11:22:19;;;;;;;1.42;1.10;;;10.60;99.90;;;;;;5014706;28;20192;-39
2022/09/28 11:24:46;;;;;;;1.38;1.27;;;10.60;99.90;;;;;;5015438;28;20405;-38
2022/09/28 11:27:25;;;;;;;1.55;1.30;;;10.70;99.90;;;;;;5013915;28;20133;-41
2022/09/28 11:29:58;;;;;;;2.55;1.33;;;10.60;99.90;;;;;;5012387;28;20036;-37
2022/09/28 11:32:29;;;;;;;1.10;1.10;;;10.60;99.90;;;;;;5016893;28;20025;-35
2022/09/28 11:34:58;;;;;;;1.23;1.13;;;10.50;99.90;;;;;;5012515;28;20029;-38
2022/09/28 11:37:58;;;;;;;1.27;1.15;;;10.50;99.90;;;;;;5014493;28;20138;-41
2022/09/28 11:40:35;;;;;;;1.08;1.08;;;10.70;99.90;;;;;;5013737;28;20041;-41
2022/09/28 11:43:11;;;;;;;1.63;1.15;;;10.60;99.90;;;;;;5014867;28;20060;-41
2022/09/28 11:45:52;;;;;;;2.85;1.50;;;10.50;99.90;;;;;;5013766;28;20096;-41
2022/09/28 11:48:23;;;;;;;1.05;1.05;;;10.60;99.90;;;;;;5013823;28;20048;-39
2022/09/28 11:51:18;;;;;;;4.43;1.50;;;10.60;99.90;;;;;;5012771;28;20493;-39
2022/09/28 11:53:48;;;;;;;1.02;1.00;;;10.50;99.90;;;;;;5011824;28;20045;-41
2022/09/28 11:56:26;;;;;;;1.80;1.40;;;10.50;99.90;;;;;;5013572;28;20112;-37
2022/09/28 11:58:57;;;;;;;0.93;0.93;;;10.40;99.90;;;;;;5012966;28;20022;-40
2022/09/28 12:01:34;;;;;;;2.00;1.23;;;10.40;99.90;;;;;;5013745;28;20490;-38
2022/09/28 12:04:20;;;;;;;23.02;14.25;;;10.40;99.90;;;;;;5015663;28;20064;-37
2022/09/28 12:07:09;;;;;;;6.28;4.47;;;10.40;99.90;;;;;;5013715;28;20037;-41
2022/09/28 12:09:42;;;;;;;1.73;1.25;;;10.40;99.90;;;;;;5014202;28;20434;-38
2022/09/28 12:12:32;;;;;;;2.28;1.60;;;10.30;99.90;;;;;;5014204;28;20436;-38
2022/09/28 12:15:03;;;;;;;2.20;1.30;;;10.30;99.90;;;;;;5014080;28;20643;-40
2022/09/28 12:17:38;;;;;;;1.33;1.20;;;10.30;99.90;;;;;;5013371;28;20057;-38
2022/09/28 12:20:32;;;;;;;2.55;1.42;;;10.30;99.90;;;;;;5016120;28;20056;-40
2022/09/28 12:23:25;;;;;;;6.18;2.42;;;10.30;99.90;;;;;;5012913;28;20103;-38
2022/09/28 12:25:58;;;;;;;2.40;1.40;;;10.40;99.90;;;;;;5012660;28;20419;-35
2022/09/28 12:28:39;;;;;;;2.20;1.83;;;10.50;99.90;;;;;;5012707;28;20026;-36
2022/09/28 12:31:29;;;;;;;3.78;0.73;;;10.40;99.90;;;;;;5012111;28;21254;-41
2022/09/28 12:33:55;;;;;;;1.17;1.15;;;10.20;99.90;;;;;;5009964;28;20517;-39
2022/09/28 12:36:42;;;;;;;4.45;2.30;;;10.30;99.90;;;;;;5014075;28;20038;-38
2022/09/28 12:39:42;;;;;;;3.00;1.73;;;10.40;99.90;;;;;;5013653;28;20079;-37
2022/09/28 12:42:17;;;;;;;2.80;1.40;;;10.40;99.90;;;;;;5014565;28;20025;-36
2022/09/28 12:45:20;;;;;;;3.25;1.70;;;10.40;99.90;;;;;;5016410;28;20037;-41
2022/09/28 12:48:12;;;;;;;1.50;1.40;;;10.30;99.90;;;;;;5018173;28;20036;-37
2022/09/28 12:51:04;;;;;;;4.22;1.98;;;10.20;99.90;;;;;;5015652;28;20426;-38
2022/09/28 12:53:46;;;;;;;2.78;1.45;;;10.30;99.90;;;;;;5016573;28;20040;-37
2022/09/28 12:56:28;;;;;;;1.65;1.42;;;10.20;99.90;;;;;;5017281;28;20029;-34
2022/09/28 12:59:03;;;;;;;1.95;1.52;;;10.40;99.90;;;;;;5017977;28;20139;-40
2022/09/28 13:01:53;;;;;;;3.78;1.33;;;10.40;99.90;;;;;;5017053;28;21855;-38
2022/09/28 13:04:33;;;;;;;4.43;1.50;;;10.50;99.90;;;;;;5018037;28;20466;-41
2022/09/28 13:07:08;;;;;;;2.45;1.60;;;10.50;99.90;;;;;;5018345;28;20026;-41
2022/09/28 13:09:49;;;;;;;2.97;1.50;;;10.40;99.90;;;;;;5016373;28;20040;-36
2022/09/28 13:12:24;;;;;;;1.98;1.48;;;10.40;99.90;;;;;;5017684;28;20692;-40
2022/09/28 13:15:15;;;;;;;2.53;1.13;;;10.30;99.90;;;;;;5016056;28;20116;-40
2022/09/28 13:17:50;;;;;;;1.73;1.40;;;10.30;99.90;;;;;;5016358;28;20033;-37
2022/09/28 13:20:34;;;;;;;1.40;1.10;;;10.30;99.90;;;;;;5015793;28;20073;-36
2022/09/28 13:23:15;;;;;;;3.22;1.50;;;10.20;99.90;;;;;;5016772;28;20490;-41
2022/09/28 13:26:22;;;;;;;1.30;1.20;;;10.20;99.90;;;;;;5016868;28;20037;-37
2022/09/28 13:28:50;;;;;;;2.30;1.48;;;10.40;99.90;;;;;;5015377;28;20041;-39
2022/09/28 13:31:22;;;;;;;1.58;1.00;;;10.50;99.90;;;;;;5016683;28;20033;-40
2022/09/28 13:33:50;;;;;;;3.28;1.42;;;10.30;99.90;;;;;;5016748;28;20451;-37